Terminal Aerodrome Forecast
Issued by NWS

Home | Current Version | Previous Version | Graphics & Text | Print | Product List | Glossary On
Versions: 1 2 3 4 5 6 7 8 9 10 11 12 13 14 15 16 17 18 19
000
FTUS43 KTOP 231700
TAFFOE
TAF
KFOE 231728Z 2318/2418 13012KT P6SM BKN060
     FM240800 14010KT P6SM VCTS BKN018 OVC035CB
     FM241600 14011KT P6SM BKN030=

USA.gov is the U.S. government's official web portal to all federal, state and local government web resources and services.